Time;durP1;ratioP1;P1;durP2;ratioP2;P2;SDS_P1;SDS_P2;PMS_P1;PMS_P2;Temp;Humidity;BMP_temperature;BMP_pressure;BME280_temperature;BME280_humidity;BME280_pressure;Samples;Min_cycle;Max_cycle;Signal;HPM_P1;HPM_P2
2022/05/18 00:04:01;;;;;;;7.63;3.83;;;;;;;11.16;100.00;97285.31;10416783;28;20212;-50
2022/05/18 00:09:01;;;;;;;6.57;3.33;;;;;;;11.14;100.00;97281.22;10416259;28;20196;-53
2022/05/18 00:14:01;;;;;;;4.10;3.23;;;;;;;11.13;100.00;97285.59;10416329;28;20276;-50
2022/05/18 00:19:02;;;;;;;7.63;3.83;;;;;;;11.17;100.00;97288.78;10415929;28;20192;-50
2022/05/18 00:24:04;;;;;;;4.23;3.40;;;;;;;11.08;100.00;97290.47;10415783;28;20220;-52
2022/05/18 00:29:05;;;;;;;9.70;3.80;;;;;;;11.04;100.00;97284.72;10415587;28;20193;-50
2022/05/18 00:34:06;;;;;;;5.37;3.20;;;;;;;10.94;100.00;97291.78;10415081;28;20221;-53
2022/05/18 00:39:06;;;;;;;8.60;3.93;;;;;;;10.81;100.00;97291.28;10414916;28;20307;-50
2022/05/18 00:44:07;;;;;;;4.17;3.07;;;;;;;10.71;100.00;97299.19;10413713;28;20212;-51
2022/05/18 00:49:07;;;;;;;11.27;3.43;;;;;;;10.61;100.00;97306.22;10414559;28;20188;-50
2022/05/18 00:54:15;;;;;;;5.23;3.43;;;;;;;10.52;100.00;97308.75;10414452;28;20236;-50
2022/05/18 00:59:22;;;;;;;4.43;3.50;;;;;;;10.47;100.00;97304.88;10413357;28;20289;-50
2022/05/18 01:04:24;;;;;;;9.03;3.70;;;;;;;10.28;100.00;97316.19;10396610;28;20215;-50
2022/05/18 01:09:32;;;;;;;4.50;3.30;;;;;;;10.29;100.00;97321.31;10396344;28;20195;-51
2022/05/18 01:14:35;;;;;;;7.90;3.30;;;;;;;10.23;100.00;97327.09;10413771;28;20258;-50
2022/05/18 01:19:39;;;;;;;6.60;3.70;;;;;;;10.19;100.00;97320.47;10413910;28;20232;-53
2022/05/18 01:24:49;;;;;;;4.97;3.60;;;;;;;10.20;100.00;97329.16;10413649;28;20296;-52
2022/05/18 01:29:51;;;;;;;5.40;3.40;;;;;;;10.26;100.00;97328.59;10395584;28;20189;-54
2022/05/18 01:34:51;;;;;;;7.60;3.30;;;;;;;10.20;100.00;97332.59;10413012;28;20244;-50
2022/05/18 01:39:58;;;;;;;9.20;3.93;;;;;;;10.08;100.00;97331.09;10413084;28;20227;-56
2022/05/18 01:44:58;;;;;;;7.73;3.53;;;;;;;9.94;100.00;97337.56;10412213;28;20219;-52
2022/05/18 01:50:00;;;;;;;10.23;3.83;;;;;;;9.95;100.00;97342.66;10412461;28;20530;-50
2022/05/18 01:55:01;;;;;;;6.00;3.00;;;;;;;9.98;100.00;97347.63;10411830;28;20379;-50
2022/05/18 02:00:04;;;;;;;9.30;3.50;;;;;;;9.91;100.00;97346.50;10412352;28;20659;-50
2022/05/18 02:05:12;;;;;;;4.47;3.07;;;;;;;9.85;100.00;97349.69;10412051;28;20219;-51
2022/05/18 02:10:13;;;;;;;8.67;3.20;;;;;;;9.75;100.00;97354.88;10414166;28;20201;-55
2022/05/18 02:15:13;;;;;;;4.17;3.40;;;;;;;9.80;100.00;97359.69;10411650;28;20311;-57
2022/05/18 02:20:13;;;;;;;3.43;2.83;;;;;;;9.99;100.00;97367.59;10411908;28;20195;-56
2022/05/18 02:25:14;;;;;;;4.07;2.60;;;;;;;10.04;100.00;97361.13;10411572;28;20208;-53
2022/05/18 02:30:15;;;;;;;9.33;3.50;;;;;;;10.03;100.00;97362.06;10411412;28;20265;-54
2022/05/18 02:35:15;;;;;;;6.60;3.47;;;;;;;9.92;100.00;97361.25;10410658;28;20224;-53
2022/05/18 02:40:16;;;;;;;9.03;3.53;;;;;;;9.79;100.00;97352.84;10411178;28;20667;-50
2022/05/18 02:45:16;;;;;;;12.63;3.50;;;;;;;9.79;100.00;97361.50;10410524;28;20679;-50
2022/05/18 02:50:17;;;;;;;5.40;3.50;;;;;;;9.71;100.00;97365.75;10410429;28;20238;-56
2022/05/18 03:00:37;;;;;;;4.17;3.17;;;;;;;9.54;100.00;97362.84;10410678;28;20242;-53
2022/05/18 03:05:38;;;;;;;5.87;3.57;;;;;;;9.40;100.00;97363.19;10410613;28;20289;-51
2022/05/18 03:10:38;;;;;;;6.93;3.80;;;;;;;9.30;100.00;97363.19;10410267;28;20211;-52
2022/05/18 03:15:38;;;;;;;7.83;3.57;;;;;;;9.17;100.00;97366.00;10410571;28;20279;-55
2022/05/18 03:25:57;;;;;;;7.40;3.63;;;;;;;9.14;100.00;97373.28;10417649;28;20698;-53
2022/05/18 03:30:58;;;;;;;8.60;3.63;;;;;;;9.13;100.00;97382.94;10417882;28;20216;-52
2022/05/18 03:35:58;;;;;;;7.03;4.10;;;;;;;9.01;100.00;97376.94;10417674;28;20223;-50
2022/05/18 03:40:59;;;;;;;7.43;3.33;;;;;;;8.92;100.00;97378.53;10417835;28;20203;-52
2022/05/18 03:45:59;;;;;;;7.57;3.27;;;;;;;9.04;100.00;97389.75;10416991;28;20239;-53
2022/05/18 03:51:02;;;;;;;5.90;4.03;;;;;;;8.98;100.00;97394.69;10416787;28;20216;-55
2022/05/18 03:56:03;;;;;;;8.40;4.20;;;;;;;9.12;100.00;97389.09;10439422;23;20236;-57
2022/05/18 04:01:08;;;;;;;7.03;4.10;;;;;;;9.21;100.00;97383.09;10457693;28;20604;-54
2022/05/18 04:06:09;;;;;;;14.33;4.03;;;;;;;9.39;100.00;97393.75;10458451;28;20214;-56
2022/05/18 04:11:10;;;;;;;11.43;3.97;;;;;;;9.42;100.00;97403.13;10457995;28;20567;-54
2022/05/18 04:16:10;;;;;;;9.10;4.40;;;;;;;9.54;100.00;97409.94;10458051;28;20212;-56
2022/05/18 04:21:10;;;;;;;10.37;4.33;;;;;;;9.74;100.00;97408.19;10457800;28;21073;-55
2022/05/18 04:26:12;;;;;;;8.67;4.43;;;;;;;9.98;100.00;97409.59;10457371;28;20610;-55
2022/05/18 04:31:12;;;;;;;10.60;4.33;;;;;;;10.01;100.00;97411.94;10457669;28;20227;-54
2022/05/18 04:36:12;;;;;;;6.73;4.67;;;;;;;10.19;100.00;97427.81;10455847;28;20215;-54
2022/05/18 04:41:13;;;;;;;5.43;4.30;;;;;;;10.27;100.00;97427.97;10439429;28;20263;-58
2022/05/18 04:46:13;;;;;;;4.30;3.70;;;;;;;10.55;100.00;97430.78;10456422;28;20563;-57
2022/05/18 04:51:13;;;;;;;6.43;4.38;;;;;;;10.52;100.00;97434.50;10456209;28;20322;-54
2022/05/18 04:56:14;;;;;;;6.25;4.40;;;;;;;10.75;100.00;97428.97;10456189;28;20321;-53
2022/05/18 05:01:14;;;;;;;9.80;4.75;;;;;;;11.00;100.00;97435.41;10456213;28;20559;-55
2022/05/18 05:06:14;;;;;;;8.18;4.55;;;;;;;11.26;100.00;97439.22;10456169;28;20588;-56
2022/05/18 05:11:15;;;;;;;6.22;4.15;;;;;;;11.65;100.00;97434.63;10455566;28;20587;-53
2022/05/18 05:16:15;;;;;;;13.52;4.20;;;;;;;11.91;100.00;97437.41;10455725;28;20214;-53
2022/05/18 05:21:16;;;;;;;7.55;3.50;;;;;;;12.19;100.00;97441.81;10455600;28;20318;-56
2022/05/18 05:26:16;;;;;;;13.98;4.22;;;;;;;12.49;100.00;97428.31;10455067;28;20215;-56
2022/05/18 05:31:17;;;;;;;6.50;3.90;;;;;;;12.75;100.00;97430.16;10453768;28;20269;-56
2022/05/18 05:36:17;;;;;;;8.10;3.67;;;;;;;12.82;100.00;97427.78;10452967;28;20245;-57
2022/05/18 05:41:18;;;;;;;7.65;4.22;;;;;;;13.23;100.00;97427.22;10454902;28;20647;-59
2022/05/18 05:46:18;;;;;;;8.90;3.80;;;;;;;13.45;100.00;97424.09;10453929;28;20208;-59
2022/05/18 05:51:19;;;;;;;9.57;4.25;;;;;;;14.08;100.00;97412.28;10455032;28;20720;-60
2022/05/18 05:56:21;;;;;;;9.70;4.15;;;;;;;14.73;100.00;97420.47;10453709;28;20718;-59
2022/05/18 06:01:21;;;;;;;7.78;4.13;;;;;;;15.52;100.00;97415.38;10454195;28;20195;-58
2022/05/18 06:06:21;;;;;;;5.63;4.03;;;;;;;15.76;89.38;97374.00;10452483;28;20211;-53
2022/05/18 06:11:22;;;;;;;9.63;3.72;;;;;;;16.36;85.18;97383.09;10452139;28;20721;-54
2022/05/18 06:16:22;;;;;;;7.82;3.60;;;;;;;16.98;75.53;97305.31;10452061;28;20636;-57
2022/05/18 06:21:23;;;;;;;9.48;3.85;;;;;;;17.34;72.34;97299.28;10452217;28;20216;-56
2022/05/18 06:26:25;;;;;;;7.32;3.97;;;;;;;17.75;71.30;97300.56;10446803;28;20227;-54
2022/05/18 06:31:25;;;;;;;5.03;3.55;;;;;;;18.24;68.18;97288.41;10450961;28;20295;-54
2022/05/18 06:36:26;;;;;;;7.05;3.70;;;;;;;18.27;67.55;97295.97;10451161;28;20339;-55
2022/05/18 06:41:26;;;;;;;10.95;3.38;;;;;;;19.26;62.10;97231.28;10451170;28;20180;-54
2022/05/18 06:46:27;;;;;;;9.95;3.00;;;;;;;18.73;65.22;97306.16;10449138;28;20212;-56
2022/05/18 06:51:30;;;;;;;9.35;3.40;;;;;;;19.34;63.90;97294.88;10450373;28;20277;-57
2022/05/18 06:56:33;;;;;;;13.63;3.70;;;;;;;19.73;62.74;97288.06;10449740;28;20239;-58
2022/05/18 07:01:34;;;;;;;12.73;3.00;;;;;;;19.78;59.25;97237.81;10451164;28;20192;-58
2022/05/18 07:06:37;;;;;;;7.65;3.13;;;;;;;18.69;61.23;97267.75;10450286;28;20583;-54
2022/05/18 07:11:38;;;;;;;11.07;3.67;;;;;;;19.29;60.76;97272.59;10450923;28;20212;-59
2022/05/18 07:16:40;;;;;;;6.45;2.92;;;;;;;18.93;60.50;97265.66;10449337;28;20616;-56
2022/05/18 07:21:40;;;;;;;13.55;3.90;;;;;;;19.46;61.20;97303.09;10448047;28;20677;-59
2022/05/18 07:26:41;;;;;;;11.00;4.28;;;;;;;18.46;62.93;97334.31;10448737;28;20303;-58
2022/05/18 07:37:01;;;;;;;7.85;3.40;;;;;;;19.74;60.06;97295.03;10449353;28;20220;-53
2022/05/18 07:42:02;;;;;;;12.45;4.18;;;;;;;19.20;60.89;97312.59;10447099;28;20585;-58
2022/05/18 07:47:05;;;;;;;8.75;3.78;;;;;;;20.51;59.44;97312.56;10447187;28;20208;-58
2022/05/18 07:52:06;;;;;;;8.73;3.30;;;;;;;20.07;57.85;97261.56;10445708;28;20848;-59
2022/05/18 07:57:08;;;;;;;6.68;3.35;;;;;;;20.49;57.46;97270.16;10446264;28;20227;-58
2022/05/18 08:02:08;;;;;;;11.18;3.47;;;;;;;20.40;57.52;97272.22;10432041;28;20191;-54
2022/05/18 08:07:09;;;;;;;29.25;11.73;;;;;;;21.06;58.82;97318.44;10448999;28;20218;-57
2022/05/18 08:17:28;;;;;;;10.98;3.40;;;;;;;20.41;56.62;97254.41;10456726;28;20212;-57
2022/05/18 08:22:28;;;;;;;5.28;3.45;;;;;;;20.65;56.43;97263.63;10455434;28;20200;-58
2022/05/18 08:27:28;;;;;;;6.47;3.70;;;;;;;21.33;54.19;97225.91;10455980;28;20222;-55
2022/05/18 08:32:29;;;;;;;8.25;3.40;;;;;;;21.33;54.01;97241.91;10455902;28;20699;-55
2022/05/18 08:37:29;;;;;;;43.95;15.07;;;;;;;20.85;53.89;97240.41;10455610;28;20688;-56
2022/05/18 08:42:30;;;;;;;32.50;11.65;;;;;;;21.84;51.56;97204.72;10455536;28;20861;-59
2022/05/18 08:47:53;;;;;;;8.55;3.38;;;;;;;21.96;50.59;97191.50;10451951;28;20242;-57
2022/05/18 08:53:05;;;;;;;5.13;3.05;;;;;;;22.32;51.65;97238.84;10435505;28;20587;-59
2022/05/18 08:58:10;;;;;;;6.88;2.92;;;;;;;22.02;50.62;97203.97;10436677;28;20227;-56
2022/05/18 09:03:20;;;;;;;11.95;3.88;;;;;;;22.00;51.28;97220.19;10436437;28;20176;-56
2022/05/18 09:08:23;;;;;;;8.18;3.83;;;;;;;21.99;50.87;97205.22;10453634;28;20208;-56
2022/05/18 09:13:24;;;;;;;5.05;3.00;;;;;;;22.48;49.72;97207.28;10433069;28;20243;-55
2022/05/18 09:18:31;;;;;;;5.90;3.33;;;;;;;21.46;51.34;97218.88;10450962;28;20215;-53
2022/05/18 09:23:56;;;;;;;8.95;4.10;;;;;;;21.67;50.61;97201.75;10442210;28;20192;-54
2022/05/18 09:29:18;;;;;;;10.05;5.18;;;;;;;22.58;51.38;97261.00;10444396;28;20306;-57
2022/05/18 09:34:33;;;;;;;12.88;5.68;;;;;;;21.75;54.32;97313.50;10434960;28;20213;-57
2022/05/18 09:39:38;;;;;;;9.85;4.80;;;;;;;21.67;52.55;97265.75;10452695;28;20204;-54
2022/05/18 09:44:48;;;;;;;8.90;5.25;;;;;;;21.99;54.35;97317.28;10452906;28;20603;-56
2022/05/18 09:49:52;;;;;;;7.68;4.72;;;;;;;21.61;52.33;97254.09;10434762;28;20218;-56
2022/05/18 09:54:54;;;;;;;10.30;4.05;;;;;;;23.56;48.76;97223.75;10452121;28;20223;-58
2022/05/18 10:00:01;;;;;;;5.47;4.03;;;;;;;23.08;48.96;97202.13;10450988;28;20712;-58
2022/05/18 10:10:36;;;;;;;7.30;4.18;;;;;;;21.71;52.30;97253.63;10410844;28;20219;-56
2022/05/18 10:15:41;;;;;;;11.32;4.30;;;;;;;22.52;48.93;97200.47;10409388;28;20216;-56
2022/05/18 10:20:41;;;;;;;9.10;4.15;;;;;;;24.28;47.66;97209.50;10411018;28;20204;-60
2022/05/18 10:25:49;;;;;;;12.05;4.40;;;;;;;21.57;50.51;97202.22;10408719;28;20204;-61
2022/05/18 10:31:04;;;;;;;7.35;4.10;;;;;;;21.45;51.82;97231.38;10408635;28;20192;-57
2022/05/18 10:36:13;;;;;;;7.65;3.90;;;;;;;22.99;49.90;97251.56;10410054;28;20218;-60
2022/05/18 10:41:16;;;;;;;10.65;3.95;;;;;;;22.19;49.46;97202.41;10409508;28;20189;-61
2022/05/18 10:46:19;;;;;;;8.27;4.05;;;;;;;22.36;51.83;97269.41;10409607;28;20220;-58
2022/05/18 10:51:28;;;;;;;8.00;4.70;;;;;;;22.95;48.70;97204.94;10410292;28;20247;-61
2022/05/18 10:56:29;;;;;;;12.73;4.82;;;;;;;22.14;50.97;97230.75;10409746;28;20243;-61
2022/05/18 11:01:36;;;;;;;6.07;4.68;;;;;;;22.20;50.24;97216.53;10408067;28;20193;-59
2022/05/18 11:06:39;;;;;;;8.32;4.43;;;;;;;22.96;48.42;97198.56;10408006;28;20294;-60
2022/05/18 11:11:53;;;;;;;8.60;4.50;;;;;;;22.54;49.04;97177.88;10409362;28;20312;-62
2022/05/18 11:17:06;;;;;;;8.35;5.28;;;;;;;23.50;49.56;97230.81;10406810;28;20223;-61
2022/05/18 11:22:25;;;;;;;14.10;5.13;;;;;;;21.37;51.85;97224.44;10408638;28;20200;-61
2022/05/18 11:27:42;;;;;;;10.40;4.93;;;;;;;21.56;49.97;97189.91;10408672;28;20573;-59
2022/05/18 11:33:04;;;;;;;12.18;4.82;;;;;;;22.17;52.05;97281.84;10408535;28;20223;-56
2022/05/18 11:38:30;;;;;;;14.27;4.57;;;;;;;22.96;50.76;97249.34;10407286;28;20192;-60
2022/05/18 11:43:53;;;;;;;8.13;4.07;;;;;;;22.43;49.84;97214.13;10408887;28;20281;-59
2022/05/18 11:49:19;;;;;;;6.90;3.63;;;;;;;22.17;50.31;97216.97;10415549;28;20189;-60
2022/05/18 11:54:25;;;;;;;5.88;3.80;;;;;;;22.57;49.23;97192.63;10415620;28;20216;-56
2022/05/18 11:59:57;;;;;;;5.60;4.05;;;;;;;21.59;51.92;97231.34;10415325;28;20246;-58
2022/05/18 12:05:24;;;;;;;5.70;3.50;;;;;;;21.12;52.97;97244.88;10415736;28;20244;-60
2022/05/18 12:10:47;;;;;;;6.88;3.35;;;;;;;22.54;51.41;97247.28;10413919;28;20284;-57
2022/05/18 12:16:19;;;;;;;5.10;3.65;;;;;;;21.99;50.46;97199.06;10413716;28;20707;-60
2022/05/18 12:21:27;;;;;;;9.55;4.25;;;;;;;24.30;46.85;97184.09;10383802;28;20703;-58
2022/05/18 12:26:29;;;;;;;6.45;3.58;;;;;;;22.19;48.33;97154.34;10397411;28;20212;-60
2022/05/18 12:31:30;;;;;;;5.88;3.42;;;;;;;22.79;49.71;97215.19;10412903;28;20695;-56
2022/05/18 12:36:41;;;;;;;8.10;3.50;;;;;;;23.84;46.82;97156.22;10411563;28;20362;-59
2022/05/18 12:41:48;;;;;;;4.13;3.60;;;;;;;24.45;45.58;97156.06;10410301;28;20693;-60
2022/05/18 12:46:54;;;;;;;6.75;3.95;;;;;;;24.81;47.57;97215.78;10409033;28;20200;-61
2022/05/18 12:51:59;;;;;;;7.10;3.95;;;;;;;24.62;46.21;97164.22;10409639;28;20248;-60
2022/05/18 12:57:05;;;;;;;6.93;3.90;;;;;;;24.44;47.34;97203.47;10410601;28;20263;-56
2022/05/18 13:02:18;;;;;;;9.73;3.95;;;;;;;24.49;46.95;97178.66;10413400;28;20204;-58
2022/05/18 13:07:28;;;;;;;12.23;4.32;;;;;;;24.39;47.87;97212.19;10412073;28;20210;-56
2022/05/18 13:12:33;;;;;;;10.95;5.40;;;;;;;23.57;50.72;97244.09;10411285;28;20714;-57
2022/05/18 13:17:46;;;;;;;13.30;5.82;;;;;;;24.01;50.06;97247.41;10410918;28;20196;-60
2022/05/18 13:23:12;;;;;;;7.82;4.78;;;;;;;23.08;50.51;97230.72;10412328;28;20586;-61
2022/05/18 13:28:13;;;;;;;7.30;5.15;;;;;;;22.95;49.43;97184.38;10410783;28;20212;-57
2022/05/18 13:33:14;;;;;;;7.90;5.15;;;;;;;23.07;50.98;97227.19;10412282;28;20362;-60
2022/05/18 13:38:24;;;;;;;13.50;5.03;;;;;;;24.14;48.82;97204.38;10411597;28;20275;-60
2022/05/18 13:43:33;;;;;;;7.57;4.93;;;;;;;23.00;50.10;97207.75;10410338;28;20216;-59
2022/05/18 13:48:33;;;;;;;8.57;5.35;;;;;;;23.15;50.27;97202.06;10411240;28;20201;-60
2022/05/18 13:53:36;;;;;;;10.40;4.32;;;;;;;23.72;50.92;97244.50;10410690;28;20266;-57
2022/05/18 13:58:40;;;;;;;6.38;4.60;;;;;;;25.29;46.92;97193.19;10410864;28;20195;-60
2022/05/18 14:03:42;;;;;;;10.18;4.82;;;;;;;25.35;45.78;97154.69;10410570;28;20228;-60
2022/05/18 14:08:48;;;;;;;6.32;3.60;;;;;;;26.45;45.80;97191.94;10410792;28;20691;-58
2022/05/18 14:13:52;;;;;;;6.88;3.78;;;;;;;24.35;47.59;97167.34;10409012;28;20221;-56
2022/05/18 14:18:54;;;;;;;7.15;4.03;;;;;;;26.20;43.85;97133.28;10410171;28;20188;-60
2022/05/18 14:24:02;;;;;;;6.03;2.90;;;;;;;26.94;42.05;97099.84;10408724;28;20722;-60
2022/05/18 14:29:05;;;;;;;7.45;3.78;;;;;;;26.20;43.04;97105.59;10408577;28;20204;-60
2022/05/18 14:34:09;;;;;;;6.10;4.30;;;;;;;22.67;48.46;97110.13;10408490;28;20232;-60
2022/05/18 14:39:15;;;;;;;9.52;4.07;;;;;;;25.76;43.37;97095.56;10409727;28;20219;-56
2022/05/18 14:44:25;;;;;;;6.20;3.60;;;;;;;25.93;43.94;97117.81;10408462;28;20247;-58
2022/05/18 14:49:34;;;;;;;4.07;3.65;;;;;;;25.19;46.22;97155.44;10407430;28;20188;-58
2022/05/18 14:54:37;;;;;;;6.75;3.80;;;;;;;27.21;41.77;97077.50;10409212;28;20220;-56
2022/05/18 14:59:49;;;;;;;7.05;3.85;;;;;;;24.87;47.86;97175.47;10409418;28;20247;-58
2022/05/18 15:05:03;;;;;;;8.57;3.75;;;;;;;25.74;44.89;97132.53;10407729;28;20290;-55
2022/05/18 15:10:14;;;;;;;9.13;3.88;;;;;;;25.89;44.22;97105.94;10409617;28;20196;-54
2022/05/18 15:15:23;;;;;;;6.95;3.50;;;;;;;25.93;44.01;97107.09;10406846;28;20228;-56
2022/05/18 15:20:37;;;;;;;6.78;3.60;;;;;;;25.11;45.94;97132.50;10412562;28;20235;-56
2022/05/18 15:25:37;;;;;;;6.53;3.85;;;;;;;25.17;46.67;97154.84;10416443;28;20718;-58
2022/05/18 15:30:46;;;;;;;5.60;3.58;;;;;;;24.35;47.77;97151.28;10416699;28;20214;-57
2022/05/18 15:36:00;;;;;;;6.60;3.90;;;;;;;24.10;48.12;97148.84;10416415;28;20221;-60
2022/05/18 15:41:00;;;;;;;8.70;3.75;;;;;;;23.39;50.02;97181.59;10414899;28;20571;-58
2022/05/18 15:46:05;;;;;;;12.32;3.92;;;;;;;24.06;48.54;97163.72;10415737;28;20208;-59
2022/05/18 15:51:06;;;;;;;7.75;4.07;;;;;;;23.96;49.00;97189.19;10411987;28;20686;-59
2022/05/18 15:56:10;;;;;;;8.38;3.80;;;;;;;22.93;49.76;97166.94;10415298;28;20214;-55
2022/05/18 16:01:10;;;;;;;7.05;4.22;;;;;;;23.30;49.66;97181.09;10415202;28;20227;-60
2022/05/18 16:06:11;;;;;;;11.27;3.95;;;;;;;22.52;51.62;97208.50;10414645;28;20323;-60
2022/05/18 16:11:12;;;;;;;6.13;4.00;;;;;;;21.89;53.39;97235.03;10414215;28;20200;-59
2022/05/18 16:16:13;;;;;;;8.80;3.85;;;;;;;21.84;54.06;97256.22;10414350;28;20197;-60
2022/05/18 16:21:23;;;;;;;8.88;3.72;;;;;;;21.94;53.93;97250.41;10415411;28;20199;-59
2022/05/18 16:26:30;;;;;;;5.97;3.92;;;;;;;21.48;54.86;97254.13;10413483;28;20330;-58
2022/05/18 16:31:30;;;;;;;7.32;4.00;;;;;;;21.24;54.59;97240.53;10410171;28;20209;-60
2022/05/18 16:36:31;;;;;;;9.13;4.45;;;;;;;20.97;56.24;97280.56;10414385;28;20212;-60
2022/05/18 16:41:34;;;;;;;9.05;4.55;;;;;;;21.18;55.25;97246.69;10412966;28;20622;-57
2022/05/18 16:46:36;;;;;;;6.63;3.50;;;;;;;21.00;56.33;97277.47;10413790;28;20263;-60
2022/05/18 16:57:34;;;;;;;6.85;3.95;;;;;;;20.71;56.39;97267.31;10298367;23;20239;-75
2022/05/18 17:02:35;;;;;;;10.02;4.10;;;;;;;20.78;57.66;97287.56;10299839;28;20219;-76
2022/05/18 17:07:36;;;;;;;5.82;3.72;;;;;;;20.30;57.36;97261.97;10304289;28;20717;-76
2022/05/18 17:12:43;;;;;;;8.95;4.10;;;;;;;20.27;58.99;97309.47;10310886;28;20214;-77
2022/05/18 17:17:44;;;;;;;9.48;4.30;;;;;;;20.31;58.50;97300.06;10307186;28;20660;-76
2022/05/18 17:22:44;;;;;;;9.23;4.13;;;;;;;20.23;59.37;97310.88;10310835;28;20304;-77
2022/05/18 17:27:45;;;;;;;12.23;4.40;;;;;;;20.00;60.26;97317.41;10300199;28;20194;-77
2022/05/18 17:32:48;;;;;;;6.95;4.13;;;;;;;19.67;60.85;97314.63;10291471;28;20227;-76
2022/05/18 17:37:51;;;;;;;6.68;4.35;;;;;;;19.69;60.29;97296.63;10290671;28;20550;-76
2022/05/18 17:42:51;;;;;;;8.10;4.13;;;;;;;19.55;61.24;97325.00;10289965;28;20579;-75
2022/05/18 17:47:52;;;;;;;8.45;3.58;;;;;;;19.48;61.09;97310.88;10289555;28;20281;-75
2022/05/18 17:52:53;;;;;;;7.40;3.55;;;;;;;19.30;61.36;97314.09;10288894;28;20333;-76
2022/05/18 17:57:53;;;;;;;6.57;4.18;;;;;;;19.30;61.62;97314.09;10281723;28;20287;-76
2022/05/18 18:02:54;;;;;;;7.82;4.30;;;;;;;19.06;62.07;97319.66;10263678;28;20194;-76
2022/05/18 18:07:55;;;;;;;10.35;3.80;;;;;;;18.84;63.16;97341.97;10287789;28;20194;-75
2022/05/18 18:12:59;;;;;;;6.35;3.72;;;;;;;18.74;63.32;97344.13;10287279;28;20220;-75
2022/05/18 18:18:00;;;;;;;7.05;3.50;;;;;;;18.49;64.99;97366.59;10288929;28;20201;-76
2022/05/18 18:23:00;;;;;;;8.13;3.85;;;;;;;18.34;64.81;97350.72;10288028;28;20214;-76
2022/05/18 18:28:01;;;;;;;7.72;3.58;;;;;;;18.33;64.26;97350.91;10288393;28;20198;-74
2022/05/18 18:33:05;;;;;;;8.05;3.72;;;;;;;18.11;65.06;97344.81;10288600;28;20286;-76
2022/05/18 18:38:06;;;;;;;8.57;3.97;;;;;;;17.88;66.86;97374.09;10288409;28;20208;-76
2022/05/18 18:43:07;;;;;;;7.13;4.00;;;;;;;17.22;70.13;97410.13;10272291;28;20205;-76
2022/05/18 18:48:08;;;;;;;4.35;3.53;;;;;;;16.86;71.05;97408.19;10287631;28;20186;-75
2022/05/18 18:58:30;;;;;;;4.85;3.70;;;;;;;16.40;73.36;97394.94;10288939;28;20186;-74
2022/05/18 19:03:30;;;;;;;5.97;3.80;;;;;;;16.18;74.79;97391.31;10287686;28;20697;-77
2022/05/18 19:08:35;;;;;;;4.72;4.10;;;;;;;15.92;76.23;97381.88;10288601;28;20220;-77
2022/05/18 19:13:35;;;;;;;8.57;4.53;;;;;;;15.78;76.55;97366.75;10287334;28;20223;-76
2022/05/18 19:18:36;;;;;;;6.50;4.30;;;;;;;15.63;77.32;97375.38;10288112;28;20195;-76
2022/05/18 19:23:36;;;;;;;9.13;4.18;;;;;;;15.56;76.49;97358.59;10287834;28;20601;-76
2022/05/18 19:28:37;;;;;;;5.18;3.20;;;;;;;15.47;77.43;97359.63;10286553;28;20632;-76
2022/05/18 19:33:38;;;;;;;6.78;3.35;;;;;;;15.33;76.40;97356.69;10286533;28;20219;-76
2022/05/18 19:38:38;;;;;;;6.07;3.47;;;;;;;15.31;75.74;97348.13;10287658;28;20198;-76
2022/05/18 19:43:42;;;;;;;5.15;3.40;;;;;;;15.38;73.54;97321.03;10287573;28;20183;-76
2022/05/18 19:48:42;;;;;;;5.68;3.92;;;;;;;15.19;75.01;97346.84;10286237;28;20191;-74
2022/05/18 19:53:42;;;;;;;4.93;3.72;;;;;;;15.30;74.30;97335.91;10287383;28;20234;-77
2022/05/18 19:58:43;;;;;;;6.72;3.78;;;;;;;15.14;74.59;97343.88;10286646;28;20202;-76
2022/05/18 20:03:43;;;;;;;8.00;3.33;;;;;;;15.43;71.33;97308.16;10286123;28;20206;-76
2022/05/18 20:08:44;;;;;;;8.23;3.10;;;;;;;15.29;71.72;97318.41;10294355;28;20206;-76
2022/05/18 20:13:45;;;;;;;4.85;3.03;;;;;;;15.41;69.46;97289.84;10294281;28;20224;-75
2022/05/18 20:18:45;;;;;;;7.13;3.40;;;;;;;15.46;69.08;97284.84;10293086;28;20191;-76
2022/05/18 20:23:47;;;;;;;6.10;2.80;;;;;;;15.55;68.15;97275.06;10294491;28;20191;-75
2022/05/18 20:28:47;;;;;;;3.50;2.47;;;;;;;15.54;67.61;97275.25;10292850;28;20198;-74
2022/05/18 20:33:47;;;;;;;6.97;2.80;;;;;;;15.35;68.31;97277.31;10294016;28;20565;-75
2022/05/18 20:38:48;;;;;;;4.78;2.60;;;;;;;15.29;68.46;97278.81;10293478;28;20217;-75
2022/05/18 20:43:49;;;;;;;6.00;3.00;;;;;;;15.38;67.82;97266.41;10293600;28;20201;-75
2022/05/18 20:48:54;;;;;;;6.78;2.97;;;;;;;15.42;67.17;97262.44;10291765;28;20194;-76
2022/05/18 20:53:56;;;;;;;9.60;2.88;;;;;;;15.38;66.93;97262.97;10275979;28;20369;-76
2022/05/18 20:58:57;;;;;;;6.13;2.60;;;;;;;15.43;66.57;97263.25;10291475;28;20221;-75
2022/05/18 21:30:01;;;;;;;5.63;2.30;;;;;;;15.16;66.93;97271.47;10374796;28;20193;-75
2022/05/18 21:35:01;;;;;;;5.63;2.72;;;;;;;15.16;66.44;97263.56;10336840;28;20625;-75
2022/05/18 21:40:03;;;;;;;3.58;2.22;;;;;;;15.14;66.50;97264.72;10338533;28;20205;-75
2022/05/18 21:45:07;;;;;;;4.43;2.25;;;;;;;15.14;65.68;97246.25;10371712;28;20654;-75
2022/05/18 21:50:07;;;;;;;7.22;2.63;;;;;;;15.18;65.71;97242.28;10353966;28;20197;-75
2022/05/18 21:55:08;;;;;;;6.60;2.50;;;;;;;15.11;65.70;97247.41;10371038;28;20786;-75
2022/05/18 22:00:15;;;;;;;5.80;2.15;;;;;;;15.11;65.33;97241.31;10354127;28;20201;-75
2022/05/18 22:05:15;;;;;;;6.35;2.33;;;;;;;15.03;65.38;97241.34;10364487;28;20193;-75
2022/05/18 22:10:16;;;;;;;3.47;2.45;;;;;;;15.13;64.91;97236.66;10371445;28;20201;-74
2022/05/18 22:15:16;;;;;;;5.25;2.25;;;;;;;15.04;65.23;97240.34;10371943;28;20247;-75
2022/05/18 22:20:17;;;;;;;5.40;2.40;;;;;;;14.97;65.26;97238.38;10353757;28;20279;-75
2022/05/18 22:25:17;;;;;;;2.53;2.28;;;;;;;15.05;64.35;97216.41;10353763;28;20296;-75
2022/05/18 22:30:21;;;;;;;3.97;2.35;;;;;;;15.07;64.17;97210.97;10370354;28;20189;-74
2022/05/18 22:35:21;;;;;;;5.43;2.25;;;;;;;14.98;64.75;97212.84;10353374;28;20286;-75
2022/05/18 22:40:25;;;;;;;4.55;2.38;;;;;;;14.83;65.15;97222.47;10370898;28;20197;-75
2022/05/18 22:45:26;;;;;;;5.75;2.50;;;;;;;14.94;63.83;97191.25;10370731;28;20555;-74
2022/05/18 22:50:37;;;;;;;4.90;2.45;;;;;;;15.05;63.56;97186.59;10370653;28;20561;-74
2022/05/18 22:55:38;;;;;;;4.82;2.22;;;;;;;15.01;63.32;97180.00;10352283;28;20241;-74
2022/05/18 23:00:40;;;;;;;7.32;2.35;;;;;;;15.19;62.40;97163.91;10352954;28;20200;-75
2022/05/18 23:05:43;;;;;;;5.70;2.83;;;;;;;14.97;63.38;97187.44;10352535;28;20185;-74
2022/05/18 23:10:44;;;;;;;6.38;2.08;;;;;;;14.85;63.75;97189.63;10370195;28;20196;-75
2022/05/18 23:15:48;;;;;;;4.47;2.20;;;;;;;14.80;64.00;97187.50;10352121;28;20591;-75
2022/05/18 23:20:50;;;;;;;6.40;2.42;;;;;;;14.72;64.62;97197.28;10352097;28;20267;-75
2022/05/18 23:25:50;;;;;;;4.32;2.25;;;;;;;14.88;63.30;97170.00;10352581;28;20272;-74
2022/05/18 23:30:51;;;;;;;5.10;2.80;;;;;;;14.71;64.38;97198.28;10369477;28;20626;-73
2022/05/18 23:35:51;;;;;;;5.82;2.00;;;;;;;14.50;65.62;97212.81;10352168;28;20693;-74
2022/05/18 23:40:51;;;;;;;4.18;2.13;;;;;;;14.46;65.72;97222.06;10373623;28;20215;-74
2022/05/18 23:45:52;;;;;;;6.78;2.53;;;;;;;14.53;65.58;97212.47;10359437;28;20189;-73
2022/05/18 23:56:25;;;;;;;3.22;2.35;;;;;;;14.59;65.97;97224.16;10376533;28;20263;-74
